Forside
METAR-TAF:

METAR-TAF

Lufthavne :

Náměšť nad Oslavou, Tjekkiet

Breddekreds: 49-09-57N, længdekreds: 16-07-30E, højde: 472 m

Aktuelle vejr

Denne rapport blev lavet for 29 minutter siden, kl. 01:00 UTC
Vind 9 kt fra vest
Temperatur 9°C
Fugtighed 76%
Tryk 1028 hPa
Sigt 10 km eller mere
ingen skyer under 1500m og ingen cumulonimbus

METAR: LKNA 130100Z 27009KT CAVOK 09/05 Q1028 RMK BLACK

Tid: 03:29 (01:29 UTC)

Vejrudsigter

Denne rapport blev lavet for 20 timer og 29 minutter siden, kl. 05:00 UTC
Foreløbig gælder fra 12 på 06 UTC til 13 på 06 UTC
Vind 6 kt fra nordvest
Sigt 10 km eller mere
ingen skyer under 1500m og ingen cumulonimbus
Midlertidig
fra 12 på 10 UTC til 12 på 18 UTC
Vind 4 kt fra vest

TAF: LKNA 120500Z 1206/1306 32006KT CAVOK TEMPO 1210/1218 28004KT

Vejrobservationer og prognoser fra mere end 4000 lufthavne (METAR og TAF).

De gule og røde prikker repræsenterer de meteorologiske stationer.

Flyt musen over at se navnet på stationen.

Så klik over at se vejr observationer og prognoser.

At skifte det kort: Klik på de grønne knapper med et sort kors for at zoome ind; på den grønne knap med en bindestreg for at zoome ud; eller på de grønne pile for tilstødende kort.


METAR-TAF: